createdAt,value
2019-05-18T00:01:02.071Z,11.00
2019-05-18T00:03:31.269Z,10.90
2019-05-18T00:06:00.462Z,10.90
2019-05-18T00:08:29.870Z,10.90
2019-05-18T00:10:59.241Z,10.90
2019-05-18T00:13:28.757Z,10.80
2019-05-18T00:15:57.904Z,10.80
2019-05-18T00:18:27.070Z,10.80
2019-05-18T00:20:56.347Z,10.80
2019-05-18T00:23:25.886Z,10.80
2019-05-18T00:25:55.358Z,10.60
2019-05-18T00:28:24.595Z,10.50
2019-05-18T00:30:53.765Z,10.50
2019-05-18T00:33:22.944Z,10.50
2019-05-18T00:35:52.422Z,10.50
2019-05-18T00:38:21.607Z,10.50
2019-05-18T00:40:51.235Z,10.40
2019-05-18T00:43:20.405Z,10.40
2019-05-18T00:45:49.778Z,10.40
2019-05-18T00:48:18.966Z,10.40
2019-05-18T00:50:48.179Z,10.30
2019-05-18T00:53:17.385Z,10.20
2019-05-18T00:55:46.578Z,10.10
2019-05-18T00:58:15.825Z,10.10
2019-05-18T01:00:44.969Z,10.00
2019-05-18T01:03:14.251Z,10.00
2019-05-18T01:05:43.713Z,10.00
2019-05-18T01:08:12.839Z,10.00
2019-05-18T01:10:42.854Z,9.90
2019-05-18T01:13:12.107Z,10.60
2019-05-18T01:15:41.378Z,9.90
2019-05-18T01:18:10.717Z,9.90
2019-05-18T01:20:40.402Z,9.90
2019-05-18T01:23:09.628Z,9.90
2019-05-18T01:25:39.783Z,9.80
2019-05-18T01:28:09.262Z,9.90
2019-05-18T01:30:38.420Z,9.90
2019-05-18T01:33:07.918Z,9.90
2019-05-18T01:35:37.113Z,10.00
2019-05-18T01:38:06.288Z,10.00
2019-05-18T01:40:35.813Z,9.90
2019-05-18T01:43:05.344Z,9.90
2019-05-18T01:45:34.550Z,9.80
2019-05-18T01:48:13.413Z,9.80
2019-05-18T01:50:34.794Z,9.70
2019-05-18T01:53:04.760Z,9.70
2019-05-18T01:55:33.905Z,9.80
2019-05-18T01:58:03.344Z,9.80
2019-05-18T02:00:32.734Z,9.90
2019-05-18T02:03:02.170Z,9.90
2019-05-18T02:05:31.301Z,9.90
2019-05-18T02:08:00.436Z,9.80
2019-05-18T02:10:30.091Z,9.80
2019-05-18T02:12:59.189Z,9.80
2019-05-18T02:15:28.403Z,9.70
2019-05-18T02:17:57.663Z,9.50
2019-05-18T02:20:26.754Z,9.40
2019-05-18T02:22:55.919Z,9.30
2019-05-18T02:25:25.133Z,9.20
2019-05-18T02:27:54.352Z,9.20
2019-05-18T02:30:23.686Z,9.10
2019-05-18T02:32:53.428Z,9.10
2019-05-18T02:35:22.858Z,9.10
2019-05-18T02:37:52.122Z,8.90
2019-05-18T02:40:21.279Z,8.80
2019-05-18T02:42:50.909Z,8.80
2019-05-18T02:45:20.182Z,8.80
2019-05-18T02:47:49.311Z,8.70
2019-05-18T02:50:18.493Z,8.70
2019-05-18T02:52:47.594Z,8.70
2019-05-18T02:55:16.754Z,8.70
2019-05-18T02:57:46.161Z,8.70
2019-05-18T03:00:15.584Z,8.70
2019-05-18T03:02:44.714Z,8.70
2019-05-18T03:05:13.955Z,8.80
2019-05-18T03:07:43.109Z,8.70
2019-05-18T03:10:12.468Z,8.70
2019-05-18T03:12:41.774Z,8.60
2019-05-18T03:15:11.007Z,8.60
2019-05-18T03:17:40.182Z,8.50
2019-05-18T03:20:09.396Z,8.50
2019-05-18T03:22:38.528Z,8.60
2019-05-18T03:25:08.034Z,8.50
2019-05-18T03:27:37.382Z,8.40
2019-05-18T03:30:07.347Z,8.40
2019-05-18T03:32:37.219Z,8.40
2019-05-18T03:35:06.698Z,8.50
2019-05-18T03:37:35.878Z,8.50
2019-05-18T03:40:05.229Z,8.60
2019-05-18T03:42:34.394Z,8.60
2019-05-18T03:45:03.560Z,8.60
2019-05-18T03:47:32.904Z,8.70
2019-05-18T03:50:02.177Z,8.70
2019-05-18T03:52:31.657Z,8.70
2019-05-18T03:55:00.971Z,8.70
2019-05-18T03:57:30.111Z,8.70
2019-05-18T03:59:59.223Z,8.80
2019-05-18T04:02:28.617Z,8.80
2019-05-18T04:04:57.714Z,8.80
2019-05-18T04:07:26.871Z,8.80
2019-05-18T04:09:56.322Z,8.70
2019-05-18T04:12:25.574Z,8.60
2019-05-18T04:14:54.804Z,8.60
2019-05-18T04:17:23.941Z,8.60
2019-05-18T04:19:53.081Z,8.60
2019-05-18T04:22:22.240Z,8.70
2019-05-18T04:24:52.399Z,8.70
2019-05-18T04:27:21.732Z,8.60
2019-05-18T04:29:51.162Z,8.60
2019-05-18T04:32:20.269Z,8.60
2019-05-18T04:34:49.841Z,8.60
2019-05-18T04:37:20.030Z,8.70
2019-05-18T04:39:49.310Z,8.80
2019-05-18T04:42:18.531Z,8.90
2019-05-18T04:44:48.740Z,8.90
2019-05-18T04:47:18.252Z,9.00
2019-05-18T04:50:03.839Z,9.00
2019-05-18T04:52:18.251Z,9.10
2019-05-18T04:54:47.398Z,9.30
2019-05-18T04:57:16.637Z,9.20
2019-05-18T04:59:45.818Z,9.40
2019-05-18T05:02:15.029Z,9.40
2019-05-18T05:04:44.266Z,9.50
2019-05-18T05:07:13.853Z,9.50
2019-05-18T05:09:43.134Z,9.60
2019-05-18T05:12:12.279Z,9.70
2019-05-18T05:14:41.468Z,9.90
2019-05-18T05:17:10.742Z,9.90
2019-05-18T05:19:40.219Z,9.80
2019-05-18T05:22:09.713Z,9.70
2019-05-18T05:24:39.938Z,9.60
2019-05-18T05:27:09.364Z,9.60
2019-05-18T05:29:38.508Z,9.60
2019-05-18T05:32:08.357Z,9.50
2019-05-18T05:34:37.573Z,9.60
2019-05-18T05:37:06.667Z,9.90
2019-05-18T05:39:36.484Z,10.20
2019-05-18T05:42:05.624Z,10.60
2019-05-18T05:44:35.633Z,10.50
2019-05-18T05:47:05.193Z,10.70
2019-05-18T05:49:34.480Z,10.40
2019-05-18T05:52:03.711Z,10.50
2019-05-18T05:54:33.568Z,10.90
2019-05-18T05:57:02.785Z,11.20
2019-05-18T05:59:32.863Z,11.80
2019-05-18T06:02:02.283Z,12.20
2019-05-18T06:04:41.620Z,12.00
2019-05-18T06:07:11.741Z,12.10
2019-05-18T06:09:50.186Z,12.40
2019-05-18T06:12:19.382Z,12.60
2019-05-18T06:14:48.590Z,12.70
2019-05-18T06:17:17.813Z,12.90
2019-05-18T06:19:46.927Z,13.00
2019-05-18T06:22:16.163Z,13.30
2019-05-18T06:24:47.140Z,13.30
2019-05-18T06:27:16.345Z,13.30
2019-05-18T06:29:45.463Z,14.00
2019-05-18T06:32:14.767Z,14.90
2019-05-18T06:34:44.531Z,15.40
2019-05-18T06:37:13.685Z,16.10
2019-05-18T06:39:42.887Z,15.60
2019-05-18T06:42:12.239Z,15.00
2019-05-18T06:44:41.431Z,15.00
2019-05-18T06:47:11.075Z,15.20
2019-05-18T06:49:40.353Z,15.00
2019-05-18T06:52:09.631Z,14.80
2019-05-18T06:54:38.771Z,15.10
2019-05-18T06:57:08.643Z,14.80
2019-05-18T06:59:39.112Z,14.40
2019-05-18T07:02:08.293Z,14.30
2019-05-18T07:04:37.609Z,14.40
2019-05-18T07:07:06.889Z,15.00
2019-05-18T07:09:36.676Z,15.40
2019-05-18T07:12:05.918Z,15.30
2019-05-18T07:14:36.860Z,15.20
2019-05-18T07:17:06.723Z,15.20
2019-05-18T07:19:36.111Z,15.30
2019-05-18T07:22:08.217Z,15.50
2019-05-18T07:24:37.429Z,14.60
2019-05-18T07:27:06.730Z,14.40
2019-05-18T07:29:36.046Z,14.30
2019-05-18T07:32:05.250Z,14.00
2019-05-18T07:34:34.503Z,14.00
2019-05-18T07:37:04.191Z,14.40
2019-05-18T07:39:36.074Z,14.40
2019-05-18T07:42:04.820Z,14.20
2019-05-18T07:44:34.098Z,14.50
2019-05-18T07:47:03.676Z,14.70
2019-05-18T07:49:33.387Z,14.40
2019-05-18T07:52:03.352Z,14.80
2019-05-18T07:54:34.623Z,15.30
2019-05-18T07:57:04.324Z,15.70
2019-05-18T07:59:33.811Z,16.20
2019-05-18T08:02:03.432Z,16.30
2019-05-18T08:04:32.690Z,16.10
2019-05-18T08:07:01.970Z,16.30
2019-05-18T08:09:31.195Z,17.00
2019-05-18T08:12:00.426Z,17.40
2019-05-18T08:14:29.831Z,17.10
2019-05-18T08:16:59.135Z,17.40
2019-05-18T08:19:28.616Z,17.70
2019-05-18T08:21:57.872Z,18.40
2019-05-18T08:24:27.391Z,18.90
2019-05-18T08:26:56.848Z,19.40
2019-05-18T08:29:26.459Z,19.60
2019-05-18T08:31:59.386Z,19.00
2019-05-18T08:34:28.980Z,18.80
2019-05-18T08:36:58.111Z,18.60
2019-05-18T08:39:27.373Z,18.70
2019-05-18T08:41:56.973Z,18.70
2019-05-18T08:44:26.334Z,18.40
2019-05-18T08:46:55.537Z,18.70
2019-05-18T08:49:24.937Z,19.30
2019-05-18T08:52:07.539Z,19.40
2019-05-18T08:54:25.130Z,19.90
2019-05-18T08:56:54.397Z,19.70
2019-05-18T08:59:23.497Z,19.60
2019-05-18T09:01:52.737Z,19.70
2019-05-18T09:04:21.992Z,19.00
2019-05-18T09:06:51.506Z,19.10
2019-05-18T09:09:20.946Z,19.60
2019-05-18T09:11:50.088Z,20.50
2019-05-18T09:14:19.345Z,20.70
2019-05-18T09:16:48.777Z,21.20
2019-05-18T09:19:18.874Z,21.50
2019-05-18T09:21:48.580Z,21.30
2019-05-18T09:24:17.765Z,21.50
2019-05-18T09:26:47.041Z,21.40
2019-05-18T09:29:16.532Z,20.90
2019-05-18T09:31:46.445Z,20.80
2019-05-18T09:34:16.033Z,20.50
2019-05-18T09:36:45.271Z,21.00
2019-05-18T09:39:14.809Z,21.40
2019-05-18T09:41:43.983Z,20.10
2019-05-18T09:44:13.419Z,19.90
2019-05-18T09:46:42.693Z,20.40
2019-05-18T09:49:11.853Z,21.20
2019-05-18T09:51:41.046Z,22.00
2019-05-18T09:54:10.227Z,22.10
2019-05-18T09:56:39.354Z,22.30
2019-05-18T09:59:08.551Z,22.80
2019-05-18T10:01:37.881Z,23.00
2019-05-18T10:04:07.710Z,21.50
2019-05-18T10:06:36.817Z,21.60
2019-05-18T10:09:09.732Z,22.30
2019-05-18T10:11:39.060Z,23.10
2019-05-18T10:14:08.721Z,23.30
2019-05-18T10:16:37.934Z,23.30
2019-05-18T10:19:07.090Z,22.90
2019-05-18T10:21:36.458Z,23.30
2019-05-18T10:24:05.973Z,23.40
2019-05-18T10:26:35.239Z,22.90
2019-05-18T10:29:05.007Z,22.20
2019-05-18T10:31:34.208Z,22.80
2019-05-18T10:34:03.623Z,23.40
2019-05-18T10:36:33.144Z,23.20
2019-05-18T10:39:02.685Z,22.80
2019-05-18T10:41:32.188Z,22.80
2019-05-18T10:44:01.306Z,22.50
2019-05-18T10:46:30.455Z,22.70
2019-05-18T10:49:00.342Z,21.10
2019-05-18T10:51:29.622Z,21.40
2019-05-18T10:53:59.258Z,22.00
2019-05-18T10:56:31.173Z,22.40
2019-05-18T10:58:59.824Z,22.40
2019-05-18T11:01:29.005Z,22.60
2019-05-18T11:03:58.226Z,23.00
2019-05-18T11:06:28.288Z,23.60
2019-05-18T11:08:57.603Z,23.70
2019-05-18T11:11:26.909Z,23.90
2019-05-18T11:13:56.209Z,24.00
2019-05-18T11:16:25.451Z,24.20
2019-05-18T11:18:54.644Z,24.70
2019-05-18T11:21:25.615Z,25.10
2019-05-18T11:24:06.480Z,24.60
2019-05-18T11:26:35.721Z,23.80
2019-05-18T11:29:04.848Z,22.70
2019-05-18T11:31:34.154Z,23.20
2019-05-18T11:34:03.998Z,22.90
2019-05-18T11:36:33.514Z,23.30
2019-05-18T11:39:02.782Z,22.40
2019-05-18T11:41:32.292Z,22.20
2019-05-18T11:44:01.574Z,23.00
2019-05-18T11:46:32.238Z,23.90
2019-05-18T11:49:01.451Z,24.10
2019-05-18T11:51:30.651Z,23.30
2019-05-18T11:53:59.859Z,23.50
2019-05-18T11:56:30.169Z,23.10
2019-05-18T11:58:59.318Z,22.80
2019-05-18T12:01:28.643Z,23.40
2019-05-18T12:03:59.375Z,24.10
2019-05-18T12:06:28.781Z,24.80
2019-05-18T12:08:58.716Z,24.80
2019-05-18T12:11:28.017Z,24.10
2019-05-18T12:13:57.704Z,22.80
2019-05-18T12:16:26.895Z,22.70
2019-05-18T12:18:57.662Z,22.40
2019-05-18T12:21:27.489Z,22.90
2019-05-18T12:23:56.723Z,23.50
2019-05-18T12:26:25.931Z,23.60
2019-05-18T12:28:55.575Z,23.40
2019-05-18T12:31:24.879Z,22.80
2019-05-18T12:33:54.129Z,23.00
2019-05-18T12:36:23.353Z,23.60
2019-05-18T12:38:53.026Z,23.10
2019-05-18T12:41:29.900Z,23.10
2019-05-18T12:43:59.889Z,23.40
2019-05-18T12:46:29.229Z,24.10
2019-05-18T12:48:58.809Z,25.00
2019-05-18T12:51:28.029Z,25.10
2019-05-18T12:53:57.362Z,25.70
2019-05-18T12:56:26.638Z,26.00
2019-05-18T12:58:55.855Z,25.70
2019-05-18T13:01:25.403Z,25.20
2019-05-18T13:03:54.957Z,25.10
2019-05-18T13:06:24.264Z,25.40
2019-05-18T13:08:53.493Z,24.70
2019-05-18T13:11:23.026Z,24.70
2019-05-18T13:13:52.281Z,24.50
2019-05-18T13:16:21.454Z,25.70
2019-05-18T13:18:50.715Z,26.10
2019-05-18T13:21:19.968Z,25.70
2019-05-18T13:23:49.514Z,24.50
2019-05-18T13:26:18.647Z,24.70
2019-05-18T13:28:48.957Z,25.00
2019-05-18T13:31:18.317Z,25.00
2019-05-18T13:33:47.633Z,24.50
2019-05-18T13:36:16.841Z,25.10
2019-05-18T13:38:46.067Z,25.20
2019-05-18T13:41:15.536Z,25.20
2019-05-18T13:43:47.015Z,25.40
2019-05-18T13:46:16.955Z,24.70
2019-05-18T13:48:47.485Z,24.40
2019-05-18T13:51:17.201Z,25.00
2019-05-18T13:53:46.343Z,25.10
2019-05-18T13:56:15.543Z,24.90
2019-05-18T13:58:45.078Z,25.30
2019-05-18T14:01:14.215Z,25.90
2019-05-18T14:03:43.681Z,25.90
2019-05-18T14:06:13.883Z,26.30
2019-05-18T14:08:43.129Z,26.30
2019-05-18T14:11:12.297Z,25.20
2019-05-18T14:13:41.456Z,23.50
2019-05-18T14:16:10.646Z,22.70
2019-05-18T14:18:40.184Z,23.00
2019-05-18T14:21:09.455Z,23.50
2019-05-18T14:23:38.876Z,23.90
2019-05-18T14:26:08.045Z,24.30
2019-05-18T14:28:37.268Z,24.00
2019-05-18T14:31:06.535Z,23.40
2019-05-18T14:33:35.865Z,24.20
2019-05-18T14:36:05.664Z,24.20
2019-05-18T14:38:34.837Z,24.40
2019-05-18T14:41:04.289Z,24.90
2019-05-18T14:43:33.531Z,25.40
2019-05-18T14:46:03.143Z,26.00
2019-05-18T14:48:32.737Z,25.60
2019-05-18T14:51:02.002Z,24.40
2019-05-18T14:53:31.133Z,25.20
2019-05-18T14:56:00.280Z,25.20
2019-05-18T14:58:29.540Z,25.70
2019-05-18T15:00:58.784Z,24.70
2019-05-18T15:03:28.246Z,24.30
2019-05-18T15:05:57.500Z,24.80
2019-05-18T15:08:26.822Z,25.70
2019-05-18T15:10:56.050Z,26.20
2019-05-18T15:13:25.387Z,25.80
2019-05-18T15:15:54.669Z,26.10
2019-05-18T15:18:23.844Z,25.40
2019-05-18T15:20:53.376Z,25.60
2019-05-18T15:23:22.671Z,25.10
2019-05-18T15:25:52.019Z,25.70
2019-05-18T15:28:21.609Z,25.80
2019-05-18T15:30:52.279Z,25.20
2019-05-18T15:33:21.704Z,25.70
2019-05-18T15:35:51.190Z,25.70
2019-05-18T15:38:21.114Z,24.70
2019-05-18T15:40:50.646Z,24.50
2019-05-18T15:43:19.930Z,25.00
2019-05-18T15:45:49.367Z,25.90
2019-05-18T15:48:18.667Z,26.10
2019-05-18T15:50:48.013Z,26.80
2019-05-18T15:53:17.426Z,26.80
2019-05-18T15:55:47.070Z,26.80
2019-05-18T15:58:16.359Z,27.10
2019-05-18T16:00:45.666Z,27.10
2019-05-18T16:03:14.959Z,27.20
2019-05-18T16:05:44.591Z,26.20
2019-05-18T16:08:14.041Z,25.10
2019-05-18T16:10:43.306Z,24.70
2019-05-18T16:13:12.637Z,24.50
2019-05-18T16:15:41.988Z,24.20
2019-05-18T16:18:11.148Z,23.60
2019-05-18T16:20:41.390Z,23.50
2019-05-18T16:23:13.451Z,23.90
2019-05-18T16:25:42.904Z,23.40
2019-05-18T16:28:12.452Z,23.00
2019-05-18T16:30:42.313Z,23.00
2019-05-18T16:33:11.587Z,22.90
2019-05-18T16:35:41.931Z,22.30
2019-05-18T16:38:11.492Z,22.00
2019-05-18T16:40:41.299Z,21.00
2019-05-18T16:43:10.502Z,21.60
2019-05-18T16:45:39.843Z,20.90
2019-05-18T16:48:09.005Z,20.70
2019-05-18T16:50:38.173Z,20.70
2019-05-18T16:53:07.379Z,20.70
2019-05-18T16:55:36.604Z,20.60
2019-05-18T16:58:05.842Z,20.70
2019-05-18T17:00:35.105Z,20.80
2019-05-18T17:03:08.453Z,20.80
2019-05-18T17:05:37.993Z,20.80
2019-05-18T17:08:07.181Z,20.90
2019-05-18T17:10:36.393Z,21.30
2019-05-18T17:13:06.279Z,21.40
2019-05-18T17:15:35.507Z,21.50
2019-05-18T17:18:04.678Z,21.20
2019-05-18T17:20:34.057Z,21.50
2019-05-18T17:23:03.592Z,21.30
2019-05-18T17:25:33.036Z,21.30
2019-05-18T17:28:02.471Z,21.60
2019-05-18T17:30:31.757Z,21.50
2019-05-18T17:33:01.010Z,21.60
2019-05-18T17:35:30.542Z,21.60
2019-05-18T17:38:01.316Z,22.00
2019-05-18T17:40:30.525Z,22.30
2019-05-18T17:42:59.744Z,22.70
2019-05-18T17:45:28.957Z,23.10
2019-05-18T17:47:58.110Z,23.00
2019-05-18T17:50:29.108Z,22.80
2019-05-18T17:52:58.450Z,22.80
2019-05-18T17:55:27.743Z,22.70
2019-05-18T17:57:56.969Z,22.90
2019-05-18T18:00:26.115Z,23.10
2019-05-18T18:02:55.483Z,23.00
2019-05-18T18:05:24.772Z,23.00
2019-05-18T18:07:55.650Z,23.00
2019-05-18T18:10:25.068Z,23.00
2019-05-18T18:12:54.451Z,23.00
2019-05-18T18:15:23.945Z,23.10
2019-05-18T18:17:53.281Z,23.00
2019-05-18T18:20:23.528Z,22.90
2019-05-18T18:22:52.655Z,22.80
2019-05-18T18:25:21.946Z,22.70
2019-05-18T18:27:51.172Z,22.70
2019-05-18T18:30:21.235Z,22.70
2019-05-18T18:32:50.506Z,22.50
2019-05-18T18:35:19.860Z,22.40
2019-05-18T18:37:49.127Z,22.10
2019-05-18T18:40:18.704Z,21.80
2019-05-18T18:42:47.963Z,21.70
2019-05-18T18:45:18.690Z,21.60
2019-05-18T18:47:47.903Z,21.50
2019-05-18T18:50:17.186Z,21.30
2019-05-18T18:52:47.545Z,21.10
2019-05-18T18:55:17.195Z,20.20
2019-05-18T18:57:46.543Z,19.60
2019-05-18T19:00:16.769Z,19.30
2019-05-18T19:02:46.115Z,18.70
2019-05-18T19:05:15.985Z,18.60
2019-05-18T19:07:45.285Z,18.10
2019-05-18T19:10:15.549Z,17.90
2019-05-18T19:12:45.036Z,17.70
2019-05-18T19:15:14.972Z,17.40
2019-05-18T19:17:44.698Z,17.40
2019-05-18T19:20:14.957Z,17.30
2019-05-18T19:22:44.526Z,17.30
2019-05-18T19:25:15.492Z,17.30
2019-05-18T19:27:54.627Z,17.20
2019-05-18T19:30:16.505Z,17.20
2019-05-18T19:32:46.283Z,17.10
2019-05-18T19:35:15.706Z,17.10
2019-05-18T19:37:45.454Z,17.10
2019-05-18T19:40:15.023Z,17.10
2019-05-18T19:42:44.371Z,17.00
2019-05-18T19:45:17.408Z,16.90
2019-05-18T19:47:46.755Z,16.90
2019-05-18T19:50:17.178Z,16.90
2019-05-18T19:52:46.713Z,16.80
2019-05-18T19:55:16.688Z,16.70
2019-05-18T19:57:46.734Z,16.30
2019-05-18T20:00:16.868Z,15.80
2019-05-18T20:02:51.401Z,15.30
2019-05-18T20:05:20.984Z,15.10
2019-05-18T20:07:50.487Z,14.90
2019-05-18T20:10:20.139Z,14.50
2019-05-18T20:12:49.400Z,14.30
2019-05-18T20:15:19.282Z,14.20
2019-05-18T20:17:48.512Z,14.20
2019-05-18T20:20:19.253Z,14.10
2019-05-18T20:22:48.803Z,14.00
2019-05-18T20:25:24.503Z,13.80
2019-05-18T20:28:23.329Z,13.80
2019-05-18T20:30:53.693Z,13.90
2019-05-18T20:33:35.831Z,14.00
2019-05-18T20:36:12.671Z,14.00
2019-05-18T20:38:43.508Z,14.00
2019-05-18T20:41:18.181Z,14.10
2019-05-18T20:43:51.007Z,14.10
2019-05-18T20:46:23.468Z,14.20
2019-05-18T20:48:54.922Z,14.20
2019-05-18T20:51:24.705Z,14.10
2019-05-18T20:53:56.419Z,14.10
2019-05-18T20:56:31.148Z,14.10
2019-05-18T20:59:01.206Z,14.50
2019-05-18T21:01:31.383Z,14.10
2019-05-18T21:04:01.433Z,14.10
2019-05-18T21:06:32.035Z,14.20
2019-05-18T21:09:10.367Z,14.10
2019-05-18T21:11:40.697Z,14.10
2019-05-18T21:14:12.062Z,14.10
2019-05-18T21:16:49.149Z,14.00
2019-05-18T21:19:23.108Z,14.00
2019-05-18T21:21:56.599Z,14.10
2019-05-18T21:24:30.167Z,14.10
2019-05-18T21:27:19.091Z,14.10
2019-05-18T21:29:51.843Z,14.10
2019-05-18T21:32:34.049Z,14.10
2019-05-18T21:35:07.007Z,14.10
2019-05-18T21:37:38.933Z,14.10
2019-05-18T21:40:11.858Z,14.20
2019-05-18T21:42:43.258Z,14.20
2019-05-18T21:45:15.617Z,14.20
2019-05-18T21:47:53.042Z,14.10
2019-05-18T21:50:25.854Z,14.10
2019-05-18T21:53:02.309Z,14.10
2019-05-18T21:55:34.009Z,14.20
2019-05-18T21:58:06.242Z,14.20
2019-05-18T22:00:37.172Z,14.30
2019-05-18T22:03:07.119Z,14.30
2019-05-18T22:05:38.738Z,14.40
2019-05-18T22:08:12.216Z,14.20
2019-05-18T22:10:48.529Z,14.10
2019-05-18T22:13:18.623Z,13.90
2019-05-18T22:15:56.863Z,13.90
2019-05-18T22:18:30.401Z,13.90
2019-05-18T22:21:05.131Z,13.80
2019-05-18T22:23:39.663Z,13.80
2019-05-18T22:26:11.059Z,13.70
2019-05-18T22:28:41.358Z,13.60
2019-05-18T22:31:13.440Z,13.60
2019-05-18T22:33:45.092Z,13.50
2019-05-18T22:36:15.454Z,13.50
2019-05-18T22:38:51.582Z,13.50
2019-05-18T22:41:28.900Z,13.50
2019-05-18T22:44:17.212Z,13.50
2019-05-18T22:46:35.484Z,13.60
2019-05-18T22:49:09.676Z,13.60
2019-05-18T22:51:42.324Z,13.60
2019-05-18T22:54:15.484Z,13.50
2019-05-18T22:56:50.848Z,13.50
2019-05-18T22:59:24.137Z,13.60
2019-05-18T23:01:56.736Z,13.60
2019-05-18T23:04:32.258Z,13.60
2019-05-18T23:07:02.454Z,13.60
2019-05-18T23:09:46.129Z,13.70
2019-05-18T23:12:20.423Z,13.70
2019-05-18T23:14:52.283Z,13.70
2019-05-18T23:17:27.045Z,13.60
2019-05-18T23:20:03.617Z,13.60
2019-05-18T23:22:37.040Z,13.60
2019-05-18T23:25:07.074Z,13.60
2019-05-18T23:27:58.086Z,13.50
2019-05-18T23:30:30.907Z,13.40
2019-05-18T23:33:04.792Z,13.40
2019-05-18T23:35:39.024Z,13.40
2019-05-18T23:38:16.457Z,13.40
2019-05-18T23:40:53.533Z,13.40
2019-05-18T23:43:29.136Z,13.40
2019-05-18T23:46:04.354Z,13.30
2019-05-18T23:48:40.390Z,13.30
2019-05-18T23:51:06.698Z,13.30
2019-05-18T23:53:36.889Z,13.30
2019-05-18T23:56:09.647Z,13.20
2019-05-18T23:58:40.665Z,13.30
